Time;durP1;ratioP1;P1;durP2;ratioP2;P2;SDS_P1;SDS_P2;PMS_P1;PMS_P2;Temp;Humidity;BMP_temperature;BMP_pressure;BME280_temperature;BME280_humidity;BME280_pressure;Samples;Min_cycle;Max_cycle;Signal;HPM_P1;HPM_P2
2021/11/17 02:26:38;;;;;;;9.02;3.55;;;;;;;7.20;97.64;101356.16;4951378;28;20042;-68
2021/11/17 02:29:20;;;;;;;6.43;3.83;;;;;;;6.80;97.45;101272.28;4951297;29;20208;-66
2021/11/17 02:32:11;;;;;;;11.70;3.90;;;;;;;7.42;97.85;101358.41;4961505;28;20061;-69
2021/11/17 02:35:09;;;;;;;6.32;3.78;;;;;;;7.42;97.13;101350.69;5008068;28;20040;-70
2021/11/17 02:37:47;;;;;;;8.13;3.72;;;;;;;7.46;96.90;101349.19;4935207;29;20129;-68
2021/11/17 02:40:21;;;;;;;13.02;4.45;;;;;;;7.53;96.25;101356.50;4936814;29;20545;-69
2021/11/17 02:43:14;;;;;;;10.80;3.97;;;;;;;7.45;96.11;101329.44;4934727;29;20199;-68
2021/11/17 02:46:00;;;;;;;10.02;3.85;;;;;;;7.59;95.68;101350.91;4934773;29;20087;-66
2021/11/17 02:48:41;;;;;;;7.32;3.40;;;;;;;7.71;95.61;101358.47;4935597;29;20044;-67
2021/11/17 02:51:07;;;;;;;6.90;3.47;;;;;;;7.63;95.30;101351.94;4934671;29;20114;-68
2021/11/17 02:53:53;;;;;;;9.50;3.50;;;;;;;7.67;95.00;101359.09;4933806;29;20118;-68
2021/11/17 02:56:31;;;;;;;8.48;3.72;;;;;;;7.66;95.45;101358.16;4941090;29;20073;-66
2021/11/17 02:59:34;;;;;;;6.93;3.40;;;;;;;7.61;95.76;101355.34;4948286;29;20042;-68
2021/11/17 03:02:17;;;;;;;5.72;3.03;;;;;;;7.44;94.60;101353.38;4950569;29;20035;-66
2021/11/17 03:04:54;;;;;;;9.43;4.30;;;;;;;7.46;95.48;101356.91;4933638;29;20095;-67
2021/11/17 03:07:38;;;;;;;6.15;3.30;;;;;;;7.64;95.68;101366.56;4950059;29;20523;-67
2021/11/17 03:10:06;;;;;;;6.40;2.92;;;;;;;7.58;94.60;101359.38;4950226;29;20557;-66
2021/11/17 03:12:36;;;;;;;7.93;3.35;;;;;;;7.47;94.20;101371.53;4937116;29;20039;-71
2021/11/17 03:15:08;;;;;;;8.90;3.38;;;;;;;6.92;93.78;101272.19;4989141;28;20038;-69
2021/11/17 03:17:48;;;;;;;10.15;3.50;;;;;;;7.55;94.16;101370.38;4992036;28;20033;-72
2021/11/17 03:20:42;;;;;;;11.45;4.03;;;;;;;7.56;94.10;101366.09;4992208;28;20042;-68
2021/11/17 03:23:39;;;;;;;11.80;3.45;;;;;;;7.69;94.50;101367.75;4991687;28;20092;-69
2021/11/17 03:26:23;;;;;;;7.68;3.35;;;;;;;6.71;93.21;101197.25;4991651;28;20034;-72
2021/11/17 03:28:54;;;;;;;7.40;3.28;;;;;;;7.56;94.32;101318.19;4992404;28;20058;-73
2021/11/17 03:31:57;;;;;;;7.45;3.38;;;;;;;6.55;93.55;101131.25;4992072;28;20026;-71
2021/11/17 03:34:25;;;;;;;10.75;3.20;;;;;;;7.83;92.32;101361.81;5006168;28;20413;-71
2021/11/17 03:37:02;;;;;;;10.02;3.60;;;;;;;7.76;92.70;101360.56;4991666;28;20408;-68
2021/11/17 03:39:36;;;;;;;11.68;3.35;;;;;;;7.78;92.34;101360.63;4992088;28;20037;-70
2021/11/17 03:42:30;;;;;;;14.77;5.68;;;;;;;7.80;92.05;101365.88;4991797;28;20035;-70
2021/11/17 03:45:13;;;;;;;27.48;18.23;;;;;;;7.79;92.68;101352.13;4991323;28;20022;-73
2021/11/17 03:47:51;;;;;;;13.55;8.85;;;;;;;7.80;92.84;101350.44;4991969;28;20031;-69
2021/11/17 03:50:52;;;;;;;11.43;10.23;;;;;;;7.79;92.80;101359.84;4973564;28;20045;-69
2021/11/17 03:53:55;;;;;;;23.25;20.95;;;;;;;7.94;92.24;101355.66;5006497;28;20031;-72
2021/11/17 03:56:20;;;;;;;12.93;5.35;;;;;;;7.96;91.15;101354.84;5006847;28;20022;-71
2021/11/17 03:58:57;;;;;;;7.13;3.80;;;;;;;7.91;91.67;101347.75;4991543;28;20030;-70
2021/11/17 04:01:45;;;;;;;19.00;13.82;;;;;;;8.00;91.65;101344.88;4991416;28;20032;-76
2021/11/17 04:04:35;;;;;;;9.30;5.45;;;;;;;8.04;91.65;101339.09;4991684;28;20019;-72
2021/11/17 04:07:20;;;;;;;12.57;4.20;;;;;;;8.16;93.37;101331.25;4992134;28;20038;-73
2021/11/17 04:10:10;;;;;;;10.50;4.75;;;;;;;8.24;93.27;101334.28;4991250;28;20120;-71
2021/11/17 04:13:06;;;;;;;8.15;4.00;;;;;;;8.25;91.43;101341.22;4991508;28;20118;-70
2021/11/17 04:15:35;;;;;;;8.48;3.22;;;;;;;8.03;90.95;101329.59;4991610;28;20120;-69
2021/11/17 04:18:19;;;;;;;7.85;3.78;;;;;;;7.96;90.97;101342.00;4991409;28;20030;-68
2021/11/17 04:20:44;;;;;;;7.20;3.35;;;;;;;7.80;90.61;101346.22;4991240;28;20035;-69
2021/11/17 04:23:24;;;;;;;9.38;4.10;;;;;;;7.08;91.58;101248.38;4991572;28;20035;-70
2021/11/17 04:25:55;;;;;;;11.35;3.72;;;;;;;7.62;92.28;101358.78;4991572;28;20092;-70
2021/11/17 04:28:42;;;;;;;10.98;3.40;;;;;;;7.42;92.66;101349.81;4992814;28;20450;-71
2021/11/17 04:31:21;;;;;;;5.25;2.80;;;;;;;7.33;93.34;101359.47;5010959;28;20450;-69
2021/11/17 04:34:05;;;;;;;8.52;3.00;;;;;;;7.31;93.40;101379.06;5026005;28;20033;-69
2021/11/17 04:37:01;;;;;;;8.45;3.40;;;;;;;7.39;93.87;101373.63;5010825;28;20100;-70
2021/11/17 04:39:30;;;;;;;10.80;4.03;;;;;;;7.58;94.39;101367.97;4981198;28;20067;-73
2021/11/17 04:42:33;;;;;;;9.05;3.50;;;;;;;7.70;93.70;101369.53;5026153;28;20045;-69
2021/11/17 04:45:01;;;;;;;8.15;3.53;;;;;;;7.80;92.73;101374.50;5010954;28;20057;-70
2021/11/17 04:48:20;;;;;;;8.93;3.75;;;;;;;7.84;93.50;101373.88;5010294;28;20100;-67
2021/11/17 04:51:08;;;;;;;9.38;3.65;;;;;;;7.63;96.03;101373.41;4953264;29;20042;-69
2021/11/17 04:53:36;;;;;;;7.07;3.10;;;;;;;7.62;96.19;101379.34;4859085;29;20068;-69
2021/11/17 04:56:25;;;;;;;7.65;3.97;;;;;;;7.73;95.41;101373.19;4859354;29;20534;-69
2021/11/17 04:59:21;;;;;;;8.90;3.72;;;;;;;7.62;96.04;101369.06;4859315;29;20048;-68
2021/11/17 05:02:12;;;;;;;9.68;3.75;;;;;;;7.53;96.60;101374.50;4859269;29;20049;-69
2021/11/17 05:04:40;;;;;;;8.43;3.72;;;;;;;7.58;95.97;101375.69;4859117;29;20038;-69
2021/11/17 05:07:17;;;;;;;9.88;3.80;;;;;;;7.64;96.63;101375.19;4859189;29;20584;-69
2021/11/17 05:09:54;;;;;;;9.85;3.50;;;;;;;7.74;96.98;101369.84;4859111;29;20061;-69
2021/11/17 05:12:39;;;;;;;9.07;3.40;;;;;;;7.77;96.34;101369.13;4858777;29;20420;-71
2021/11/17 05:15:30;;;;;;;8.15;3.47;;;;;;;7.92;94.53;101382.97;4859137;29;20044;-73
2021/11/17 05:18:50;;;;;;;7.72;3.92;;;;;;;7.88;93.35;101383.53;4804142;29;20116;-72
2021/11/17 05:21:34;;;;;;;13.63;4.00;;;;;;;7.97;93.46;101384.94;4806902;29;20050;-70
2021/11/17 05:24:27;;;;;;;9.75;3.80;;;;;;;8.04;93.43;101380.25;4840478;29;20106;-71
2021/11/17 05:26:55;;;;;;;15.07;4.80;;;;;;;8.12;94.22;101390.13;4840089;29;20041;-70
2021/11/17 05:29:23;;;;;;;8.65;4.43;;;;;;;8.10;92.81;101401.22;4840328;29;20056;-71
2021/11/17 05:32:00;;;;;;;6.53;3.47;;;;;;;8.19;91.76;101402.59;4895899;29;20075;-69
2021/11/17 05:34:50;;;;;;;12.45;5.20;;;;;;;8.17;94.62;101410.19;4880112;29;20044;-73
2021/11/17 05:37:34;;;;;;;;;;;;;;;8.18;94.89;101411.09;4896288;29;20040;-72
2021/11/17 05:40:14;;;;;;;14.10;5.63;;;;;;;8.20;94.94;101412.97;4895798;29;20014;-72
2021/11/17 05:42:43;;;;;;;9.05;4.72;;;;;;;8.16;96.28;101397.22;4879958;29;20546;-71
2021/11/17 05:45:11;;;;;;;19.55;7.35;;;;;;;8.05;96.51;101406.84;4880136;29;20173;-70
2021/11/17 05:47:52;;;;;;;19.73;9.35;;;;;;;7.98;97.30;101415.88;4895552;29;20033;-72
2021/11/17 05:50:58;;;;;;;17.92;9.38;;;;;;;8.01;96.97;101417.75;4895759;29;20036;-72
2021/11/17 05:53:34;;;;;;;22.27;10.30;;;;;;;7.06;96.08;101238.81;4895623;29;20423;-70
2021/11/17 05:56:15;;;;;;;32.05;17.48;;;;;;;8.10;95.78;101413.19;5002515;28;20471;-71
2021/11/17 05:59:10;;;;;;;25.33;13.93;;;;;;;8.12;95.95;101416.72;5013262;28;20088;-73
2021/11/17 06:02:06;;;;;;;39.40;14.32;;;;;;;7.99;97.19;101402.22;5012889;28;20068;-74
2021/11/17 06:04:31;;;;;;;37.58;14.98;;;;;;;8.01;97.40;101412.59;4995713;28;20030;-72
2021/11/17 06:06:57;;;;;;;53.88;27.08;;;;;;;7.81;98.34;101403.63;5012916;28;20100;-70
2021/11/17 06:09:22;;;;;;;37.85;17.52;;;;;;;7.49;99.58;101387.97;5013013;28;20050;-70
2021/11/17 06:11:55;;;;;;;32.50;15.65;;;;;;;7.68;99.42;101419.97;5012766;28;20041;-69
2021/11/17 06:14:25;;;;;;;30.48;11.63;;;;;;;7.85;98.31;101426.16;5008984;28;20030;-71
2021/11/17 06:17:06;;;;;;;33.63;12.05;;;;;;;7.78;99.55;101430.03;5011512;28;20057;-73
2021/11/17 06:19:37;;;;;;;23.70;8.93;;;;;;;7.82;99.02;101423.41;5028304;28;20466;-72
2021/11/17 06:22:05;;;;;;;22.85;8.02;;;;;;;7.82;98.22;101411.44;5012601;28;20056;-71
2021/11/17 06:24:34;;;;;;;15.23;7.13;;;;;;;7.84;99.12;101403.81;5012648;28;20057;-71
2021/11/17 06:27:03;;;;;;;12.25;5.82;;;;;;;7.84;98.86;101416.66;5012708;28;20061;-70
2021/11/17 06:29:37;;;;;;;13.75;5.38;;;;;;;7.83;99.08;101420.94;4986627;28;20038;-70
2021/11/17 06:32:04;;;;;;;10.65;5.43;;;;;;;7.68;98.95;101396.84;4993162;28;20113;-73
2021/11/17 06:34:40;;;;;;;14.43;4.13;;;;;;;7.84;99.05;101422.72;5024667;28;20061;-72
2021/11/17 06:37:13;;;;;;;9.68;4.72;;;;;;;7.91;98.57;101424.91;4992643;28;20507;-71
2021/11/17 06:39:41;;;;;;;15.80;8.95;;;;;;;7.97;99.93;101419.22;4992315;28;20434;-70
2021/11/17 06:42:10;;;;;;;11.73;7.47;;;;;;;7.99;99.24;101419.31;4992373;28;20443;-72
2021/11/17 06:44:37;;;;;;;11.82;4.00;;;;;;;7.92;99.20;101416.41;4994657;28;20403;-70
2021/11/17 06:47:03;;;;;;;12.70;6.20;;;;;;;7.97;98.40;101405.50;4993598;28;20030;-71
2021/11/17 06:49:29;;;;;;;15.18;5.10;;;;;;;8.04;98.23;101402.53;4992702;28;20041;-70
2021/11/17 06:51:56;;;;;;;10.93;4.45;;;;;;;8.06;98.01;101393.19;4992200;28;20030;-71
2021/11/17 06:54:23;;;;;;;17.67;11.10;;;;;;;8.02;96.78;101376.69;4997656;28;20081;-69
2021/11/17 06:56:49;;;;;;;14.27;6.30;;;;;;;8.18;96.05;101400.81;5003500;28;20045;-70
2021/11/17 06:59:15;;;;;;;8.77;4.20;;;;;;;8.04;94.78;101374.22;5011612;28;20079;-69
2021/11/17 07:01:40;;;;;;;64.15;36.03;;;;;;;7.50;94.92;101310.09;5011930;28;20033;-69
2021/11/17 07:04:07;;;;;;;9.68;5.57;;;;;;;8.02;94.99;101394.69;5003607;28;20041;-71
2021/11/17 07:06:33;;;;;;;10.10;5.95;;;;;;;7.12;97.36;101257.16;4992519;28;20030;-69
2021/11/17 07:08:59;;;;;;;12.70;5.88;;;;;;;7.85;97.55;101374.75;4991759;28;20144;-69
2021/11/17 07:11:25;;;;;;;10.88;4.68;;;;;;;7.63;97.44;101351.94;4991861;28;20042;-70
2021/11/17 07:13:51;;;;;;;10.70;5.88;;;;;;;7.66;97.75;101393.28;4991804;28;20464;-70
2021/11/17 07:16:18;;;;;;;12.57;6.28;;;;;;;7.59;97.92;101385.19;4991834;28;20030;-70
2021/11/17 07:18:43;;;;;;;12.07;5.22;;;;;;;7.31;98.56;101337.97;4991857;28;20034;-70
2021/11/17 07:21:09;;;;;;;10.30;3.58;;;;;;;7.60;97.86;101378.34;4992003;28;20026;-71
2021/11/17 07:23:36;;;;;;;6.25;3.78;;;;;;;7.65;98.58;101391.50;4991560;28;20030;-68
2021/11/17 07:26:01;;;;;;;13.73;7.80;;;;;;;7.13;98.93;101300.91;4991751;28;20038;-69
2021/11/17 07:28:27;;;;;;;12.65;4.68;;;;;;;7.63;99.36;101375.06;4989790;28;20401;-68
2021/11/17 07:30:53;;;;;;;11.25;5.70;;;;;;;7.72;98.88;101373.97;4991771;28;20085;-68
2021/11/17 07:33:19;;;;;;;10.25;5.95;;;;;;;7.90;97.70;101384.53;4991798;28;20057;-68
2021/11/17 07:35:49;;;;;;;8.40;3.60;;;;;;;7.49;96.79;101316.00;4991612;28;20030;-70
2021/11/17 07:38:18;;;;;;;8.57;4.88;;;;;;;7.80;96.57;101374.50;4991537;28;20058;-69
2021/11/17 07:40:46;;;;;;;15.45;9.13;;;;;;;7.98;97.00;101402.13;4991942;28;20039;-70
2021/11/17 07:43:13;;;;;;;16.80;8.73;;;;;;;7.97;98.05;101411.50;4991423;28;20436;-72
2021/11/17 07:45:40;;;;;;;14.85;8.15;;;;;;;7.99;98.25;101404.78;4991538;28;20474;-68
2021/11/17 07:48:06;;;;;;;26.75;12.02;;;;;;;7.37;98.22;101303.28;4990539;28;20471;-70
2021/11/17 07:50:32;;;;;;;9.05;4.40;;;;;;;8.04;96.44;101403.41;4991461;28;20034;-71
2021/11/17 07:52:57;;;;;;;9.15;4.25;;;;;;;8.15;96.09;101396.34;4991056;28;20420;-71
2021/11/17 07:55:23;;;;;;;9.68;4.70;;;;;;;7.92;95.79;101346.97;4991774;28;20038;-70
2021/11/17 07:57:51;;;;;;;14.45;6.03;;;;;;;8.31;94.63;101402.44;5010674;28;20052;-71
2021/11/17 08:00:24;;;;;;;9.77;4.53;;;;;;;8.30;95.28;101404.13;5011090;28;20053;-71
2021/11/17 08:02:50;;;;;;;9.27;4.80;;;;;;;8.19;95.98;101390.59;5010976;28;20112;-71
2021/11/17 08:05:19;;;;;;;11.77;6.25;;;;;;;8.22;97.13;101406.25;5010972;28;20377;-71
2021/11/17 08:07:45;;;;;;;11.88;5.30;;;;;;;7.59;96.62;101302.94;5010910;28;20415;-71
2021/11/17 08:10:16;;;;;;;16.15;6.00;;;;;;;8.19;96.79;101395.75;5011281;28;20053;-70
2021/11/17 08:12:42;;;;;;;13.13;4.85;;;;;;;8.07;97.71;101371.84;5009866;28;20041;-70
2021/11/17 08:15:08;;;;;;;11.85;4.80;;;;;;;8.31;96.56;101411.06;5010986;28;20033;-71
2021/11/17 08:17:34;;;;;;;7.60;4.47;;;;;;;8.32;95.44;101389.66;5010890;28;20384;-71
2021/11/17 08:19:59;;;;;;;11.63;5.55;;;;;;;8.51;95.12;101411.38;5010572;28;20473;-71
2021/11/17 08:22:25;;;;;;;8.65;4.70;;;;;;;8.60;95.28;101401.66;5011148;28;20403;-71
2021/11/17 08:24:51;;;;;;;20.33;10.43;;;;;;;8.51;94.79;101390.81;5014376;28;20109;-71
2021/11/17 08:27:20;;;;;;;22.15;9.75;;;;;;;8.56;93.92;101405.75;5014539;28;20478;-69
2021/11/17 08:29:52;;;;;;;11.10;5.18;;;;;;;8.40;92.74;101397.84;5012410;28;20034;-69
2021/11/17 08:32:20;;;;;;;7.68;3.47;;;;;;;8.26;92.21;101390.19;5013683;28;20034;-68
2021/11/17 08:34:47;;;;;;;8.70;3.05;;;;;;;8.33;92.99;101394.00;4993823;28;20100;-69
2021/11/17 08:37:13;;;;;;;8.07;3.55;;;;;;;8.05;93.69;101357.97;5010238;28;20800;-71
2021/11/17 08:39:41;;;;;;;15.95;7.07;;;;;;;7.70;94.52;101306.19;5006906;28;20034;-71
2021/11/17 08:42:08;;;;;;;11.90;4.25;;;;;;;8.36;96.18;101399.34;5012782;28;20080;-70
2021/11/17 08:44:35;;;;;;;10.50;3.97;;;;;;;8.38;95.59;101391.72;5014180;28;20404;-70
2021/11/17 08:47:04;;;;;;;16.33;6.65;;;;;;;8.33;94.70;101373.44;5014136;28;20026;-70
2021/11/17 08:49:29;;;;;;;21.33;9.25;;;;;;;8.37;94.32;101366.78;5014539;28;20053;-72
2021/11/17 08:51:56;;;;;;;21.17;11.57;;;;;;;8.41;93.68;101377.34;5014321;28;20472;-71
2021/11/17 08:54:22;;;;;;;29.27;17.25;;;;;;;8.35;94.01;101353.84;5014720;28;20234;-71
2021/11/17 08:56:47;;;;;;;8.57;4.22;;;;;;;8.42;92.95;101367.94;5014391;28;20499;-71
2021/11/17 08:59:13;;;;;;;20.42;9.55;;;;;;;8.46;93.76;101366.44;5014299;28;20096;-71
2021/11/17 09:01:38;;;;;;;11.70;4.25;;;;;;;8.38;92.70;101376.28;5013291;28;20029;-71
2021/11/17 09:04:08;;;;;;;11.40;4.95;;;;;;;8.24;93.06;101350.59;5013475;28;20105;-71
2021/11/17 09:06:35;;;;;;;7.65;4.57;;;;;;;8.05;94.50;101306.56;5013517;28;20018;-69
2021/11/17 09:09:05;;;;;;;8.27;4.80;;;;;;;8.45;94.66;101374.97;5013333;28;20041;-69
2021/11/17 09:11:33;;;;;;;11.88;6.43;;;;;;;7.92;92.87;101268.94;5013288;28;20057;-70
2021/11/17 09:13:59;;;;;;;10.23;5.13;;;;;;;7.85;93.35;101262.53;5012677;28;20030;-70
2021/11/17 09:16:30;;;;;;;20.92;6.70;;;;;;;8.73;94.15;101380.09;5013357;28;20030;-70
2021/11/17 09:18:56;;;;;;;28.25;7.72;;;;;;;8.76;94.10;101377.72;4980496;28;20084;-70
2021/11/17 09:21:21;;;;;;;12.20;5.05;;;;;;;8.73;92.37;101383.59;5013489;28;20480;-72
2021/11/17 09:23:47;;;;;;;17.77;5.90;;;;;;;8.81;92.62;101376.31;5013968;28;20040;-69
2021/11/17 09:26:14;;;;;;;11.52;4.32;;;;;;;8.67;90.53;101377.16;5013673;28;20022;-70
2021/11/17 09:28:40;;;;;;;11.23;3.95;;;;;;;8.59;90.77;101356.13;5013391;28;20062;-69
2021/11/17 09:31:07;;;;;;;8.98;4.43;;;;;;;8.57;90.66;101361.19;5013617;28;20119;-70
2021/11/17 09:33:37;;;;;;;9.63;4.85;;;;;;;8.69;92.14;101378.16;5013665;28;20106;-70
2021/11/17 09:36:06;;;;;;;10.63;4.28;;;;;;;8.15;92.15;101277.13;5012560;28;20426;-69
2021/11/17 09:38:32;;;;;;;6.82;4.13;;;;;;;8.04;92.41;101259.38;5027864;28;20065;-69
2021/11/17 09:41:10;;;;;;;10.68;5.05;;;;;;;8.65;91.49;101353.00;5013112;28;20030;-69
2021/11/17 09:43:41;;;;;;;14.38;4.88;;;;;;;8.78;91.29;101363.22;5013399;28;20033;-72
2021/11/17 09:46:07;;;;;;;21.08;5.13;;;;;;;8.74;89.96;101354.44;5013163;28;20508;-71
2021/11/17 09:48:38;;;;;;;15.00;4.38;;;;;;;8.74;89.32;101358.72;5013485;28;20033;-71
2021/11/17 09:51:13;;;;;;;19.92;5.03;;;;;;;8.13;89.85;101256.47;5013410;28;20115;-72
2021/11/17 09:53:41;;;;;;;22.88;6.22;;;;;;;8.68;89.75;101356.66;5012978;28;20029;-71
2021/11/17 09:56:13;;;;;;;20.80;8.68;;;;;;;8.69;90.80;101352.41;5013019;28;20506;-71
2021/11/17 09:58:44;;;;;;;14.07;4.90;;;;;;;8.79;90.28;101344.41;5026653;28;20168;-69
2021/11/17 10:01:16;;;;;;;9.82;4.53;;;;;;;8.70;90.14;101320.72;5012989;28;20123;-69
2021/11/17 10:04:13;;;;;;;32.63;15.63;;;;;;;8.58;90.11;101266.84;5012786;28;20538;-71
2021/11/17 10:12:13;;;;;;;13.20;4.63;;;;;;;9.04;88.65;101335.53;5008675;28;20095;-74
2021/11/17 10:14:51;;;;;;;23.85;12.30;;;;;;;9.06;88.97;101341.69;5012235;28;20072;-72
2021/11/17 10:17:49;;;;;;;12.05;6.10;;;;;;;9.17;88.25;101331.97;5010005;28;20484;-71
2021/11/17 10:20:17;;;;;;;8.80;3.20;;;;;;;9.14;86.73;101337.81;4969850;28;20054;-69
2021/11/17 10:22:50;;;;;;;9.07;4.93;;;;;;;9.17;87.84;101319.06;4969649;28;20035;-72
2021/11/17 10:25:22;;;;;;;10.55;3.53;;;;;;;9.33;87.66;101320.81;4971064;28;20055;-68
2021/11/17 10:28:05;;;;;;;14.23;7.22;;;;;;;9.05;87.08;101289.25;4968969;28;20042;-71
2021/11/17 10:30:39;;;;;;;12.65;4.32;;;;;;;9.16;86.85;101315.63;4964473;28;20038;-69
2021/11/17 10:33:11;;;;;;;7.38;3.03;;;;;;;9.30;86.22;101325.81;4970567;28;20084;-70
2021/11/17 10:35:44;;;;;;;11.38;4.80;;;;;;;9.36;87.45;101327.03;4970424;28;20081;-70
2021/11/17 10:38:24;;;;;;;16.00;6.93;;;;;;;9.29;87.56;101327.50;4967513;28;20054;-71
2021/11/17 10:40:49;;;;;;;;;;;;;;;9.18;87.14;101324.34;4970809;28;20034;-69
2021/11/17 10:43:21;;;;;;;19.17;9.20;;;;;;;9.26;87.65;101321.28;4970547;28;20041;-71
2021/11/17 10:45:54;;;;;;;14.23;6.50;;;;;;;9.23;87.30;101325.47;4969895;28;20038;-71
2021/11/17 10:48:32;;;;;;;14.75;8.05;;;;;;;9.18;86.89;101314.03;4969452;28;20046;-68
2021/11/17 10:51:18;;;;;;;12.15;4.18;;;;;;;9.29;86.32;101319.75;4967945;28;20066;-68
2021/11/17 10:53:51;;;;;;;8.98;3.65;;;;;;;9.36;86.51;101323.59;4970022;28;20070;-70
2021/11/17 10:56:21;;;;;;;15.57;6.85;;;;;;;9.40;86.45;101317.78;4978961;28;20480;-69
2021/11/17 10:58:47;;;;;;;;;;;;;;;9.28;86.11;101312.84;4994419;28;20029;-68
2021/11/17 11:01:18;;;;;;;33.38;15.10;;;;;;;8.71;86.75;101220.41;5011331;28;20371;-68
2021/11/17 11:03:51;;;;;;;22.75;8.10;;;;;;;9.02;87.03;101262.44;5009837;28;20112;-69
2021/11/17 11:06:32;;;;;;;32.08;11.63;;;;;;;9.17;87.73;101278.75;5011092;28;20026;-68
2021/11/17 11:09:32;;;;;;;28.35;13.23;;;;;;;9.29;87.46;101312.03;4999348;28;20053;-71
2021/11/17 11:21:15;;;;;;;17.23;8.27;;;;;;;8.84;89.58;101299.22;5097250;27;20407;-71
2021/11/17 11:24:08;;;;;;;18.85;7.00;;;;;;;8.94;88.92;101289.47;5097080;28;20051;-72
2021/11/17 11:26:59;;;;;;;17.35;8.68;;;;;;;9.01;87.56;101287.31;5075154;28;20036;-73
2021/11/17 11:29:40;;;;;;;14.55;7.50;;;;;;;8.72;88.07;101242.78;5068486;28;20031;-70
2021/11/17 11:32:15;;;;;;;18.55;8.77;;;;;;;9.04;88.88;101295.19;5090360;28;20027;-71
2021/11/17 11:34:45;;;;;;;24.88;9.68;;;;;;;9.06;88.16;101290.16;5098276;28;20020;-70
2021/11/17 11:37:30;;;;;;;14.05;5.57;;;;;;;9.12;88.40;101289.59;5095816;28;20103;-71
2021/11/17 11:40:04;;;;;;;14.20;6.60;;;;;;;8.87;88.08;101241.84;5096853;28;20024;-70
2021/11/17 11:42:39;;;;;;;13.23;7.00;;;;;;;9.22;87.66;101279.91;5093323;28;20024;-70
2021/11/17 11:45:07;;;;;;;23.25;9.45;;;;;;;9.13;87.00;101281.94;5088566;28;20135;-70
2021/11/17 11:47:56;;;;;;;14.93;7.50;;;;;;;9.09;87.62;101268.84;5088556;28;20076;-69
2021/11/17 11:50:30;;;;;;;33.90;16.45;;;;;;;9.12;86.88;101279.28;5088181;28;20032;-69
2021/11/17 11:53:06;;;;;;;33.95;16.75;;;;;;;9.14;86.73;101272.53;5088603;28;20431;-69
2021/11/17 11:55:49;;;;;;;14.10;5.70;;;;;;;9.18;85.84;101275.38;5088218;28;20024;-69
2021/11/17 11:58:23;;;;;;;9.68;5.13;;;;;;;9.22;85.61;101279.91;5087977;28;20033;-69
2021/11/17 12:00:59;;;;;;;14.98;5.45;;;;;;;9.27;86.05;101268.94;5088092;28;20028;-69
2021/11/17 12:03:28;;;;;;;15.38;5.35;;;;;;;8.98;85.64;101214.13;5088317;28;20028;-69
2021/11/17 12:06:04;;;;;;;15.70;5.00;;;;;;;9.30;85.38;101261.41;5088312;28;20375;-70
2021/11/17 12:08:34;;;;;;;11.48;3.45;;;;;;;8.98;84.86;101201.25;5078674;28;20067;-69
2021/11/17 12:11:02;;;;;;;23.10;10.85;;;;;;;9.37;85.48;101268.63;5070737;28;20036;-70
2021/11/17 12:13:32;;;;;;;25.33;11.63;;;;;;;9.35;86.38;101267.69;5072266;28;20128;-69
2021/11/17 12:16:10;;;;;;;17.92;7.68;;;;;;;9.30;85.72;101270.00;5070987;28;20032;-68
2021/11/17 12:18:57;;;;;;;27.17;10.60;;;;;;;9.34;86.67;101277.09;5073172;28;20020;-68
2021/11/17 12:21:39;;;;;;;12.43;4.38;;;;;;;8.78;86.03;101175.28;5066458;28;20036;-68
2021/11/17 12:24:10;;;;;;;18.50;8.65;;;;;;;9.21;85.10;101267.81;5081602;28;20102;-69
2021/11/17 12:26:40;;;;;;;22.75;8.30;;;;;;;9.09;86.16;101271.41;5068873;28;20037;-68
2021/11/17 12:29:13;;;;;;;15.43;6.65;;;;;;;8.99;86.27;101275.16;5066281;28;20025;-70
2021/11/17 12:31:43;;;;;;;22.52;5.85;;;;;;;8.92;86.94;101248.16;5057656;28;20025;-70
2021/11/17 12:34:22;;;;;;;34.03;6.35;;;;;;;8.02;87.42;101093.81;5053043;28;20075;-70
2021/11/17 12:36:57;;;;;;;13.43;4.32;;;;;;;9.05;87.74;101267.78;5053045;28;20027;-70
2021/11/17 12:39:26;;;;;;;12.57;4.68;;;;;;;8.98;87.29;101257.91;5052592;28;20127;-71
2021/11/17 12:41:58;;;;;;;17.08;9.43;;;;;;;8.98;87.35;101271.66;5052867;28;20063;-70
2021/11/17 12:44:24;;;;;;;31.08;8.85;;;;;;;9.04;87.26;101274.59;5053038;28;20029;-70
2021/11/17 12:47:12;;;;;;;53.00;28.63;;;;;;;9.09;87.83;101279.13;5052561;28;20059;-70
2021/11/17 12:49:46;;;;;;;23.55;8.93;;;;;;;9.00;86.54;101272.66;5052670;28;20112;-70
2021/11/17 12:52:27;;;;;;;22.08;6.82;;;;;;;8.90;86.28;101273.81;5051800;28;20075;-71
2021/11/17 12:54:53;;;;;;;74.55;41.05;;;;;;;8.92;86.63;101271.31;5052808;28;20029;-68
2021/11/17 12:57:26;;;;;;;60.13;31.55;;;;;;;8.33;86.97;101167.59;5052176;28;20108;-68
2021/11/17 12:59:59;;;;;;;57.00;30.10;;;;;;;7.96;86.59;101085.75;5052727;28;20055;-69
2021/11/17 13:02:24;;;;;;;26.30;14.65;;;;;;;8.90;86.56;101262.66;5085107;28;20025;-68
2021/11/17 13:04:54;;;;;;;14.32;7.95;;;;;;;8.80;86.04;101243.22;5052495;28;20108;-68
2021/11/17 13:07:42;;;;;;;;;;;;;;;8.95;86.21;101260.31;5073749;28;20532;-69
2021/11/17 13:10:08;;;;;;;16.63;9.25;;;;;;;8.99;86.33;101251.97;5072832;28;19916;-68
2021/11/17 13:12:38;;;;;;;14.30;7.40;;;;;;;8.46;85.61;101164.09;5073046;28;20024;-70
2021/11/17 13:15:03;;;;;;;11.30;6.68;;;;;;;8.98;85.60;101260.50;5064993;28;20060;-69
2021/11/17 13:17:45;;;;;;;14.93;5.65;;;;;;;9.01;85.91;101261.56;5077133;28;20073;-69
2021/11/17 13:20:14;;;;;;;14.48;4.43;;;;;;;9.06;86.09;101261.81;5092568;28;20147;-69
2021/11/17 13:22:48;;;;;;;15.57;5.18;;;;;;;8.95;85.96;101242.28;5093576;28;20074;-69
2021/11/17 13:25:21;;;;;;;10.52;4.18;;;;;;;9.03;85.62;101251.34;5071129;28;20486;-69
2021/11/17 13:28:06;;;;;;;16.10;8.02;;;;;;;9.08;85.65;101247.31;5054080;28;20025;-69
2021/11/17 13:30:46;;;;;;;23.13;11.20;;;;;;;9.21;85.19;101254.06;5051736;28;20422;-69
2021/11/17 13:33:33;;;;;;;32.45;17.02;;;;;;;9.18;85.26;101239.31;5051636;28;20052;-69
2021/11/17 13:36:06;;;;;;;29.02;16.73;;;;;;;8.94;85.45;101182.19;5049556;28;20049;-69
2021/11/17 13:38:32;;;;;;;27.58;11.60;;;;;;;9.20;85.15;101237.69;5054406;28;20078;-69
2021/11/17 13:41:01;;;;;;;20.33;8.35;;;;;;;9.30;85.07;101248.53;5049394;28;20600;-71
2021/11/17 13:43:28;;;;;;;24.50;12.18;;;;;;;9.30;84.61;101253.69;5048330;28;20051;-70
2021/11/17 13:45:56;;;;;;;9.80;3.45;;;;;;;8.59;84.55;101139.94;5049643;28;20510;-70
2021/11/17 13:48:26;;;;;;;24.33;12.40;;;;;;;9.34;84.69;101255.59;5049149;28;20103;-70
2021/11/17 13:50:53;;;;;;;16.27;6.78;;;;;;;9.20;84.86;101237.69;5057754;28;20033;-70
2021/11/17 13:53:20;;;;;;;20.35;7.68;;;;;;;9.07;85.34;101220.69;5069217;28;20475;-69
2021/11/17 13:56:21;;;;;;;9.07;3.08;;;;;;;9.36;83.82;101261.75;5069256;28;20033;-68
2021/11/17 13:58:49;;;;;;;24.08;12.23;;;;;;;9.14;84.43;101218.44;4989690;28;20045;-70
2021/11/17 14:04:36;;;;;;;15.55;7.40;;;;;;;9.04;83.91;101181.00;5044306;23;20061;-70
2021/11/17 14:07:02;;;;;;;23.98;10.25;;;;;;;9.44;84.13;101268.19;5013091;28;20034;-72
2021/11/17 14:09:29;;;;;;;30.38;13.10;;;;;;;9.51;84.44;101265.13;5013134;28;20030;-70
2021/11/17 14:11:57;;;;;;;13.85;5.60;;;;;;;9.55;83.71;101272.22;5011872;28;20034;-71
2021/11/17 14:14:22;;;;;;;21.38;9.10;;;;;;;9.57;83.57;101259.44;5011806;28;20123;-71
2021/11/17 14:16:49;;;;;;;25.60;10.63;;;;;;;9.49;83.84;101238.38;5012628;28;20472;-70
2021/11/17 14:19:14;;;;;;;18.88;5.53;;;;;;;9.67;83.23;101256.53;5013056;28;20034;-70
2021/11/17 14:21:42;;;;;;;41.72;20.83;;;;;;;9.67;84.12;101255.63;5012715;28;20407;-70
2021/11/17 14:24:08;;;;;;;45.92;29.30;;;;;;;9.62;84.49;101241.63;5012577;28;20030;-70
2021/11/17 14:26:34;;;;;;;24.38;13.05;;;;;;;9.73;84.71;101249.94;5011553;28;20050;-70
2021/11/17 14:29:25;;;;;;;14.45;6.13;;;;;;;9.80;82.97;101265.81;5011518;28;20033;-72
2021/11/17 14:31:56;;;;;;;16.80;7.13;;;;;;;9.82;83.59;101250.41;4968690;28;20061;-71
2021/11/17 14:34:23;;;;;;;13.13;4.88;;;;;;;9.84;83.52;101254.88;4970177;28;20598;-71
2021/11/17 14:36:52;;;;;;;10.63;4.00;;;;;;;9.85;82.38;101260.91;4969696;28;20047;-70
2021/11/17 14:39:19;;;;;;;;;;;;;;;9.83;82.28;101267.66;4954209;28;20512;-71
2021/11/17 14:41:46;;;;;;;9.45;3.10;;;;;;;9.82;81.78;101264.19;4970620;28;19965;-71
2021/11/17 14:44:12;;;;;;;7.10;3.10;;;;;;;9.71;82.13;101236.97;4970640;28;20079;-70